sensor_id;sensor_type;location;lat;lon;timestamp;temperature;humidity
528;DHT22;250;47.712;7.508;2022-09-09T00:01:46;18.80;28.30
528;DHT22;250;47.712;7.508;2022-09-09T00:04:24;18.70;28.20
528;DHT22;250;47.712;7.508;2022-09-09T00:07:00;18.60;28.10
528;DHT22;250;47.712;7.508;2022-09-09T00:09:31;18.60;28.10
528;DHT22;250;47.712;7.508;2022-09-09T00:12:04;18.60;28.30
528;DHT22;250;47.712;7.508;2022-09-09T00:14:39;18.60;28.80
528;DHT22;250;47.712;7.508;2022-09-09T00:17:17;18.60;28.70
528;DHT22;250;47.712;7.508;2022-09-09T00:19:49;18.60;28.70
528;DHT22;250;47.712;7.508;2022-09-09T00:22:21;18.60;28.90
528;DHT22;250;47.712;7.508;2022-09-09T00:24:51;18.50;29.20
528;DHT22;250;47.712;7.508;2022-09-09T00:27:24;18.50;29.40
528;DHT22;250;47.712;7.508;2022-09-09T00:29:58;18.50;29.90
528;DHT22;250;47.712;7.508;2022-09-09T00:32:29;18.50;29.60
528;DHT22;250;47.712;7.508;2022-09-09T00:35:00;18.50;30.00
528;DHT22;250;47.712;7.508;2022-09-09T00:37:29;18.50;30.10
528;DHT22;250;47.712;7.508;2022-09-09T00:40:02;18.50;30.40
528;DHT22;250;47.712;7.508;2022-09-09T00:42:39;18.50;30.90
528;DHT22;250;47.712;7.508;2022-09-09T00:45:19;18.60;30.90
528;DHT22;250;47.712;7.508;2022-09-09T00:47:53;18.50;31.30
528;DHT22;250;47.712;7.508;2022-09-09T00:50:32;18.60;30.40
528;DHT22;250;47.712;7.508;2022-09-09T00:53:10;18.60;30.80
528;DHT22;250;47.712;7.508;2022-09-09T00:55:41;18.60;30.80
528;DHT22;250;47.712;7.508;2022-09-09T00:58:12;18.60;31.50
528;DHT22;250;47.712;7.508;2022-09-09T01:00:43;18.60;32.20
528;DHT22;250;47.712;7.508;2022-09-09T01:03:21;18.60;32.50
528;DHT22;250;47.712;7.508;2022-09-09T01:05:59;18.60;32.50
528;DHT22;250;47.712;7.508;2022-09-09T01:08:42;18.50;32.50
528;DHT22;250;47.712;7.508;2022-09-09T01:11:20;18.50;32.50
528;DHT22;250;47.712;7.508;2022-09-09T01:13:53;18.50;32.70
528;DHT22;250;47.712;7.508;2022-09-09T01:16:24;18.50;33.80
528;DHT22;250;47.712;7.508;2022-09-09T01:18:54;18.50;35.00
528;DHT22;250;47.712;7.508;2022-09-09T01:21:32;18.50;35.00
528;DHT22;250;47.712;7.508;2022-09-09T01:24:19;18.50;35.40
528;DHT22;250;47.712;7.508;2022-09-09T01:26:50;18.60;34.80
528;DHT22;250;47.712;7.508;2022-09-09T01:29:19;18.50;34.00
528;DHT22;250;47.712;7.508;2022-09-09T01:31:54;18.60;33.70
528;DHT22;250;47.712;7.508;2022-09-09T01:34:22;18.50;33.90
528;DHT22;250;47.712;7.508;2022-09-09T01:36:55;18.50;34.00
528;DHT22;250;47.712;7.508;2022-09-09T01:39:24;18.50;34.50
528;DHT22;250;47.712;7.508;2022-09-09T01:41:53;18.50;34.10
528;DHT22;250;47.712;7.508;2022-09-09T01:44:22;18.60;33.80
528;DHT22;250;47.712;7.508;2022-09-09T01:46:49;18.60;33.60
528;DHT22;250;47.712;7.508;2022-09-09T01:49:17;18.60;33.40
528;DHT22;250;47.712;7.508;2022-09-09T01:51:47;18.60;33.60
528;DHT22;250;47.712;7.508;2022-09-09T01:54:16;18.50;34.30
528;DHT22;250;47.712;7.508;2022-09-09T01:56:47;18.50;33.90
528;DHT22;250;47.712;7.508;2022-09-09T01:59:47;18.50;33.90
528;DHT22;250;47.712;7.508;2022-09-09T02:02:18;18.50;34.20
528;DHT22;250;47.712;7.508;2022-09-09T02:04:47;18.40;34.90
528;DHT22;250;47.712;7.508;2022-09-09T02:07:31;18.50;34.60
528;DHT22;250;47.712;7.508;2022-09-09T02:10:05;18.50;34.70
528;DHT22;250;47.712;7.508;2022-09-09T02:12:36;18.40;35.10
528;DHT22;250;47.712;7.508;2022-09-09T02:15:11;18.50;35.20
528;DHT22;250;47.712;7.508;2022-09-09T02:17:41;18.50;35.00
528;DHT22;250;47.712;7.508;2022-09-09T02:20:12;18.40;35.50
528;DHT22;250;47.712;7.508;2022-09-09T02:22:42;18.40;35.60
528;DHT22;250;47.712;7.508;2022-09-09T02:25:12;18.50;35.30
528;DHT22;250;47.712;7.508;2022-09-09T02:27:41;18.50;35.20
528;DHT22;250;47.712;7.508;2022-09-09T02:30:12;18.40;35.30
528;DHT22;250;47.712;7.508;2022-09-09T02:32:40;18.40;35.90
528;DHT22;250;47.712;7.508;2022-09-09T02:35:12;18.30;36.10
528;DHT22;250;47.712;7.508;2022-09-09T02:37:41;18.30;36.10
528;DHT22;250;47.712;7.508;2022-09-09T02:40:11;18.40;36.40
528;DHT22;250;47.712;7.508;2022-09-09T02:42:39;18.30;36.80
528;DHT22;250;47.712;7.508;2022-09-09T02:45:08;18.30;37.30
528;DHT22;250;47.712;7.508;2022-09-09T02:47:39;18.40;37.50
528;DHT22;250;47.712;7.508;2022-09-09T02:50:12;18.40;36.80
528;DHT22;250;47.712;7.508;2022-09-09T02:52:47;18.40;36.90
528;DHT22;250;47.712;7.508;2022-09-09T02:55:24;18.40;37.30
528;DHT22;250;47.712;7.508;2022-09-09T02:57:55;18.40;37.20
528;DHT22;250;47.712;7.508;2022-09-09T03:00:24;18.40;37.40
528;DHT22;250;47.712;7.508;2022-09-09T03:02:52;18.40;37.00
528;DHT22;250;47.712;7.508;2022-09-09T03:05:20;18.50;37.00
528;DHT22;250;47.712;7.508;2022-09-09T03:07:47;18.50;37.20
528;DHT22;250;47.712;7.508;2022-09-09T03:10:16;18.50;36.80
528;DHT22;250;47.712;7.508;2022-09-09T03:12:43;18.50;37.00
528;DHT22;250;47.712;7.508;2022-09-09T03:15:10;18.50;37.50
528;DHT22;250;47.712;7.508;2022-09-09T03:17:37;18.50;37.90
528;DHT22;250;47.712;7.508;2022-09-09T03:20:06;18.50;37.50
528;DHT22;250;47.712;7.508;2022-09-09T03:22:34;18.50;37.50
528;DHT22;250;47.712;7.508;2022-09-09T03:25:01;18.50;37.50
528;DHT22;250;47.712;7.508;2022-09-09T03:27:29;18.50;37.60
528;DHT22;250;47.712;7.508;2022-09-09T03:29:56;18.50;37.30
528;DHT22;250;47.712;7.508;2022-09-09T03:32:23;18.50;37.50
528;DHT22;250;47.712;7.508;2022-09-09T03:34:52;18.50;36.80
528;DHT22;250;47.712;7.508;2022-09-09T03:37:20;18.50;37.40
528;DHT22;250;47.712;7.508;2022-09-09T03:39:48;18.50;36.90
528;DHT22;250;47.712;7.508;2022-09-09T03:42:15;18.60;37.00
528;DHT22;250;47.712;7.508;2022-09-09T03:44:44;18.60;36.60
528;DHT22;250;47.712;7.508;2022-09-09T03:47:16;18.60;36.20
528;DHT22;250;47.712;7.508;2022-09-09T03:49:43;18.60;36.00
528;DHT22;250;47.712;7.508;2022-09-09T03:52:10;18.50;36.50
528;DHT22;250;47.712;7.508;2022-09-09T03:54:38;18.50;36.90
528;DHT22;250;47.712;7.508;2022-09-09T03:57:08;18.50;36.50
528;DHT22;250;47.712;7.508;2022-09-09T03:59:35;18.50;36.40
528;DHT22;250;47.712;7.508;2022-09-09T04:02:03;18.40;36.70
528;DHT22;250;47.712;7.508;2022-09-09T04:04:30;18.50;36.90
528;DHT22;250;47.712;7.508;2022-09-09T04:06:57;18.50;37.10
528;DHT22;250;47.712;7.508;2022-09-09T04:09:24;18.40;37.40
528;DHT22;250;47.712;7.508;2022-09-09T04:11:52;18.40;37.40
528;DHT22;250;47.712;7.508;2022-09-09T04:14:20;18.40;37.40
528;DHT22;250;47.712;7.508;2022-09-09T04:16:48;18.40;37.40
528;DHT22;250;47.712;7.508;2022-09-09T04:19:15;18.50;37.50
528;DHT22;250;47.712;7.508;2022-09-09T04:21:42;18.40;37.50
528;DHT22;250;47.712;7.508;2022-09-09T04:24:10;18.40;38.00
528;DHT22;250;47.712;7.508;2022-09-09T04:26:37;18.40;38.20
528;DHT22;250;47.712;7.508;2022-09-09T04:29:06;18.30;38.60
528;DHT22;250;47.712;7.508;2022-09-09T04:31:33;18.30;38.70
528;DHT22;250;47.712;7.508;2022-09-09T04:34:00;18.40;38.40
528;DHT22;250;47.712;7.508;2022-09-09T04:36:31;18.30;38.50
528;DHT22;250;47.712;7.508;2022-09-09T04:38:58;18.20;39.60
528;DHT22;250;47.712;7.508;2022-09-09T04:41:27;18.30;39.90
528;DHT22;250;47.712;7.508;2022-09-09T04:43:54;18.30;39.60
528;DHT22;250;47.712;7.508;2022-09-09T04:46:23;18.40;40.00
528;DHT22;250;47.712;7.508;2022-09-09T04:48:50;18.40;38.80
528;DHT22;250;47.712;7.508;2022-09-09T04:51:18;18.50;38.60
528;DHT22;250;47.712;7.508;2022-09-09T04:53:45;18.50;38.60
528;DHT22;250;47.712;7.508;2022-09-09T04:56:14;18.50;38.30
528;DHT22;250;47.712;7.508;2022-09-09T04:58:41;18.50;38.80
528;DHT22;250;47.712;7.508;2022-09-09T05:01:11;18.60;38.50
528;DHT22;250;47.712;7.508;2022-09-09T05:03:39;18.50;38.60
528;DHT22;250;47.712;7.508;2022-09-09T05:06:08;18.50;38.30
528;DHT22;250;47.712;7.508;2022-09-09T05:08:36;18.60;38.00
528;DHT22;250;47.712;7.508;2022-09-09T05:11:04;18.50;38.70
528;DHT22;250;47.712;7.508;2022-09-09T05:13:31;18.40;39.10
528;DHT22;250;47.712;7.508;2022-09-09T05:15:58;18.40;38.90
528;DHT22;250;47.712;7.508;2022-09-09T05:18:25;18.40;39.60
528;DHT22;250;47.712;7.508;2022-09-09T05:20:58;18.30;40.00
528;DHT22;250;47.712;7.508;2022-09-09T05:23:26;18.20;40.90
528;DHT22;250;47.712;7.508;2022-09-09T05:25:57;18.30;40.00
528;DHT22;250;47.712;7.508;2022-09-09T05:28:24;18.30;40.60
528;DHT22;250;47.712;7.508;2022-09-09T05:30:59;18.30;40.10
528;DHT22;250;47.712;7.508;2022-09-09T05:33:29;18.30;39.90
528;DHT22;250;47.712;7.508;2022-09-09T05:36:02;18.30;40.90
528;DHT22;250;47.712;7.508;2022-09-09T05:38:30;18.30;40.40
528;DHT22;250;47.712;7.508;2022-09-09T05:40:58;18.30;40.40
528;DHT22;250;47.712;7.508;2022-09-09T05:43:26;18.30;40.20
528;DHT22;250;47.712;7.508;2022-09-09T05:46:02;18.40;40.30
528;DHT22;250;47.712;7.508;2022-09-09T05:48:30;18.40;40.70
528;DHT22;250;47.712;7.508;2022-09-09T05:50:58;18.40;41.20
528;DHT22;250;47.712;7.508;2022-09-09T05:53:27;18.40;42.00
528;DHT22;250;47.712;7.508;2022-09-09T05:56:01;18.40;41.40
528;DHT22;250;47.712;7.508;2022-09-09T05:58:30;18.40;41.10
528;DHT22;250;47.712;7.508;2022-09-09T06:01:02;18.40;40.70
528;DHT22;250;47.712;7.508;2022-09-09T06:03:29;18.30;41.00
528;DHT22;250;47.712;7.508;2022-09-09T06:06:00;18.30;40.80
528;DHT22;250;47.712;7.508;2022-09-09T06:08:28;18.20;42.20
528;DHT22;250;47.712;7.508;2022-09-09T06:11:01;18.30;41.40
528;DHT22;250;47.712;7.508;2022-09-09T06:13:29;18.30;41.40
528;DHT22;250;47.712;7.508;2022-09-09T06:15:56;18.30;42.30
528;DHT22;250;47.712;7.508;2022-09-09T06:18:24;18.30;42.30
528;DHT22;250;47.712;7.508;2022-09-09T06:20:56;18.40;42.30
528;DHT22;250;47.712;7.508;2022-09-09T06:23:23;18.40;42.40
528;DHT22;250;47.712;7.508;2022-09-09T06:25:59;18.50;41.70
528;DHT22;250;47.712;7.508;2022-09-09T06:28:27;18.50;41.20
528;DHT22;250;47.712;7.508;2022-09-09T06:30:57;18.50;40.30
528;DHT22;250;47.712;7.508;2022-09-09T06:33:25;18.60;40.20
528;DHT22;250;47.712;7.508;2022-09-09T06:35:53;18.60;39.90
528;DHT22;250;47.712;7.508;2022-09-09T06:38:22;18.60;40.00
528;DHT22;250;47.712;7.508;2022-09-09T06:40:55;18.70;39.50
528;DHT22;250;47.712;7.508;2022-09-09T06:43:23;18.70;39.10
528;DHT22;250;47.712;7.508;2022-09-09T06:45:55;18.70;39.20
528;DHT22;250;47.712;7.508;2022-09-09T06:48:23;18.70;39.30
528;DHT22;250;47.712;7.508;2022-09-09T06:50:51;18.70;39.50
528;DHT22;250;47.712;7.508;2022-09-09T06:53:19;18.70;40.00
528;DHT22;250;47.712;7.508;2022-09-09T06:55:46;18.70;39.40
528;DHT22;250;47.712;7.508;2022-09-09T06:58:15;18.70;38.90
528;DHT22;250;47.712;7.508;2022-09-09T07:00:42;18.80;39.30
528;DHT22;250;47.712;7.508;2022-09-09T07:03:09;18.90;38.50
528;DHT22;250;47.712;7.508;2022-09-09T07:05:36;19.00;39.40
528;DHT22;250;47.712;7.508;2022-09-09T07:08:04;19.00;38.00
528;DHT22;250;47.712;7.508;2022-09-09T07:10:31;19.00;38.40
528;DHT22;250;47.712;7.508;2022-09-09T07:12:59;19.00;38.40
528;DHT22;250;47.712;7.508;2022-09-09T07:15:28;19.00;38.50
528;DHT22;250;47.712;7.508;2022-09-09T07:17:55;19.10;38.50
528;DHT22;250;47.712;7.508;2022-09-09T07:20:27;19.10;38.10
528;DHT22;250;47.712;7.508;2022-09-09T07:22:55;19.10;38.00
528;DHT22;250;47.712;7.508;2022-09-09T07:25:22;19.10;38.10
528;DHT22;250;47.712;7.508;2022-09-09T07:27:49;19.10;38.00
528;DHT22;250;47.712;7.508;2022-09-09T07:30:17;19.10;35.30
528;DHT22;250;47.712;7.508;2022-09-09T07:32:46;19.20;35.40
528;DHT22;250;47.712;7.508;2022-09-09T07:35:13;19.10;34.70
528;DHT22;250;47.712;7.508;2022-09-09T07:37:40;19.10;35.40
528;DHT22;250;47.712;7.508;2022-09-09T07:40:08;19.10;33.70
528;DHT22;250;47.712;7.508;2022-09-09T07:42:35;19.10;33.50
528;DHT22;250;47.712;7.508;2022-09-09T07:45:03;19.10;33.90
528;DHT22;250;47.712;7.508;2022-09-09T07:47:31;19.10;33.00
528;DHT22;250;47.712;7.508;2022-09-09T07:50:00;19.10;33.30
528;DHT22;250;47.712;7.508;2022-09-09T07:52:27;19.10;34.30
528;DHT22;250;47.712;7.508;2022-09-09T07:54:54;19.20;33.70
528;DHT22;250;47.712;7.508;2022-09-09T07:57:22;19.20;34.10
528;DHT22;250;47.712;7.508;2022-09-09T07:59:49;19.30;34.70
528;DHT22;250;47.712;7.508;2022-09-09T08:02:16;19.40;33.70
528;DHT22;250;47.712;7.508;2022-09-09T08:04:43;19.50;33.10
528;DHT22;250;47.712;7.508;2022-09-09T08:07:11;19.60;31.40
528;DHT22;250;47.712;7.508;2022-09-09T08:09:38;19.70;31.30
528;DHT22;250;47.712;7.508;2022-09-09T08:12:06;19.80;30.40
528;DHT22;250;47.712;7.508;2022-09-09T08:14:34;19.80;30.50
528;DHT22;250;47.712;7.508;2022-09-09T08:17:01;19.90;27.90
528;DHT22;250;47.712;7.508;2022-09-09T08:19:28;19.90;26.80
528;DHT22;250;47.712;7.508;2022-09-09T08:21:55;19.80;27.20
528;DHT22;250;47.712;7.508;2022-09-09T08:24:24;19.80;26.50
528;DHT22;250;47.712;7.508;2022-09-09T08:26:51;19.80;26.40
528;DHT22;250;47.712;7.508;2022-09-09T08:29:19;19.90;25.60
528;DHT22;250;47.712;7.508;2022-09-09T08:31:48;20.00;26.70
528;DHT22;250;47.712;7.508;2022-09-09T08:34:15;20.20;26.40
528;DHT22;250;47.712;7.508;2022-09-09T08:36:44;20.30;25.40
528;DHT22;250;47.712;7.508;2022-09-09T08:39:13;20.50;24.80
528;DHT22;250;47.712;7.508;2022-09-09T08:42:04;20.60;24.00
528;DHT22;250;47.712;7.508;2022-09-09T08:44:48;20.50;22.90
528;DHT22;250;47.712;7.508;2022-09-09T08:47:22;20.50;23.70
528;DHT22;250;47.712;7.508;2022-09-09T08:50:02;20.50;23.50
528;DHT22;250;47.712;7.508;2022-09-09T08:52:38;20.50;22.60
528;DHT22;250;47.712;7.508;2022-09-09T08:55:19;20.60;22.60
528;DHT22;250;47.712;7.508;2022-09-09T08:57:50;20.60;22.00
528;DHT22;250;47.712;7.508;2022-09-09T09:00:19;20.60;22.00
528;DHT22;250;47.712;7.508;2022-09-09T09:02:53;20.60;22.30
528;DHT22;250;47.712;7.508;2022-09-09T09:05:29;20.50;22.50
528;DHT22;250;47.712;7.508;2022-09-09T09:08:05;20.40;22.40
528;DHT22;250;47.712;7.508;2022-09-09T09:10:45;20.40;22.30
528;DHT22;250;47.712;7.508;2022-09-09T09:13:18;20.50;22.40
528;DHT22;250;47.712;7.508;2022-09-09T09:15:50;20.60;22.20
528;DHT22;250;47.712;7.508;2022-09-09T09:18:19;20.70;22.20
528;DHT22;250;47.712;7.508;2022-09-09T09:20:52;20.80;22.80
528;DHT22;250;47.712;7.508;2022-09-09T09:23:23;20.90;21.70
528;DHT22;250;47.712;7.508;2022-09-09T09:25:53;21.10;21.80
528;DHT22;250;47.712;7.508;2022-09-09T09:28:27;21.10;21.90
528;DHT22;250;47.712;7.508;2022-09-09T09:30:55;21.20;19.60
528;DHT22;250;47.712;7.508;2022-09-09T09:33:27;21.30;20.00
528;DHT22;250;47.712;7.508;2022-09-09T09:35:56;21.20;20.50
528;DHT22;250;47.712;7.508;2022-09-09T09:38:26;21.20;19.80
528;DHT22;250;47.712;7.508;2022-09-09T09:40:55;21.20;19.20
528;DHT22;250;47.712;7.508;2022-09-09T09:43:28;21.30;19.90
528;DHT22;250;47.712;7.508;2022-09-09T09:45:56;21.30;19.50
528;DHT22;250;47.712;7.508;2022-09-09T09:48:25;21.30;19.90
528;DHT22;250;47.712;7.508;2022-09-09T09:50:54;21.40;20.10
528;DHT22;250;47.712;7.508;2022-09-09T09:53:25;21.50;19.80
528;DHT22;250;47.712;7.508;2022-09-09T09:55:57;21.50;19.60
528;DHT22;250;47.712;7.508;2022-09-09T09:58:29;21.50;19.90
528;DHT22;250;47.712;7.508;2022-09-09T10:00:59;21.60;20.70
528;DHT22;250;47.712;7.508;2022-09-09T10:03:29;21.60;18.20
528;DHT22;250;47.712;7.508;2022-09-09T10:05:56;21.70;19.00
528;DHT22;250;47.712;7.508;2022-09-09T10:08:25;21.80;19.40
528;DHT22;250;47.712;7.508;2022-09-09T10:11:04;21.80;19.20
528;DHT22;250;47.712;7.508;2022-09-09T10:13:46;21.90;18.40
528;DHT22;250;47.712;7.508;2022-09-09T10:16:29;21.90;18.60
528;DHT22;250;47.712;7.508;2022-09-09T10:19:00;21.80;16.90
528;DHT22;250;47.712;7.508;2022-09-09T10:21:44;21.60;17.30
528;DHT22;250;47.712;7.508;2022-09-09T10:27:36;21.70;17.40
528;DHT22;250;47.712;7.508;2022-09-09T10:30:12;21.70;18.20
528;DHT22;250;47.712;7.508;2022-09-09T10:32:47;21.60;17.70
528;DHT22;250;47.712;7.508;2022-09-09T10:35:32;21.50;18.10
528;DHT22;250;47.712;7.508;2022-09-09T10:38:16;21.50;18.10
528;DHT22;250;47.712;7.508;2022-09-09T10:41:00;21.50;18.60
528;DHT22;250;47.712;7.508;2022-09-09T10:43:46;21.70;17.90
528;DHT22;250;47.712;7.508;2022-09-09T10:46:23;21.70;17.50
528;DHT22;250;47.712;7.508;2022-09-09T10:49:04;21.90;17.80
528;DHT22;250;47.712;7.508;2022-09-09T10:51:43;22.00;17.60
528;DHT22;250;47.712;7.508;2022-09-09T10:54:30;22.20;17.70
528;DHT22;250;47.712;7.508;2022-09-09T10:57:03;22.20;17.10
528;DHT22;250;47.712;7.508;2022-09-09T10:59:34;22.30;17.20
528;DHT22;250;47.712;7.508;2022-09-09T11:02:12;22.30;17.80
528;DHT22;250;47.712;7.508;2022-09-09T11:04:44;22.20;17.60
528;DHT22;250;47.712;7.508;2022-09-09T11:07:16;22.20;16.50
528;DHT22;250;47.712;7.508;2022-09-09T11:09:50;22.20;17.00
528;DHT22;250;47.712;7.508;2022-09-09T11:12:21;22.30;17.10
528;DHT22;250;47.712;7.508;2022-09-09T11:14:54;22.30;18.00
528;DHT22;250;47.712;7.508;2022-09-09T11:17:33;22.30;18.60
528;DHT22;250;47.712;7.508;2022-09-09T11:20:05;22.30;18.60
528;DHT22;250;47.712;7.508;2022-09-09T11:22:35;22.20;18.60
528;DHT22;250;47.712;7.508;2022-09-09T11:25:07;21.90;18.30
528;DHT22;250;47.712;7.508;2022-09-09T11:27:43;21.80;17.30
528;DHT22;250;47.712;7.508;2022-09-09T11:30:20;21.90;18.30
528;DHT22;250;47.712;7.508;2022-09-09T11:35:57;21.90;18.30
528;DHT22;250;47.712;7.508;2022-09-09T11:38:31;22.00;17.50
528;DHT22;250;47.712;7.508;2022-09-09T11:41:02;22.10;16.30
528;DHT22;250;47.712;7.508;2022-09-09T11:43:32;22.20;16.80
528;DHT22;250;47.712;7.508;2022-09-09T11:46:02;22.20;16.00
528;DHT22;250;47.712;7.508;2022-09-09T11:48:33;22.30;15.20
528;DHT22;250;47.712;7.508;2022-09-09T11:51:06;22.40;14.00
528;DHT22;250;47.712;7.508;2022-09-09T11:53:35;22.40;14.10
528;DHT22;250;47.712;7.508;2022-09-09T11:56:12;22.50;14.60
528;DHT22;250;47.712;7.508;2022-09-09T11:58:53;22.30;14.10
528;DHT22;250;47.712;7.508;2022-09-09T12:01:39;22.20;14.10
528;DHT22;250;47.712;7.508;2022-09-09T12:04:30;22.20;14.30
528;DHT22;250;47.712;7.508;2022-09-09T12:07:03;22.30;13.70
528;DHT22;250;47.712;7.508;2022-09-09T12:09:45;22.30;13.70
528;DHT22;250;47.712;7.508;2022-09-09T12:12:25;22.30;13.80
528;DHT22;250;47.712;7.508;2022-09-09T12:15:18;22.30;14.00
528;DHT22;250;47.712;7.508;2022-09-09T12:17:48;22.20;14.40
528;DHT22;250;47.712;7.508;2022-09-09T12:20:19;22.20;14.40
528;DHT22;250;47.712;7.508;2022-09-09T12:22:56;22.10;14.30
528;DHT22;250;47.712;7.508;2022-09-09T12:25:31;22.00;15.40
528;DHT22;250;47.712;7.508;2022-09-09T12:28:05;22.10;15.30
528;DHT22;250;47.712;7.508;2022-09-09T12:30:41;22.20;15.30
528;DHT22;250;47.712;7.508;2022-09-09T12:33:13;22.30;15.00
528;DHT22;250;47.712;7.508;2022-09-09T12:35:45;22.30;15.20
528;DHT22;250;47.712;7.508;2022-09-09T12:38:17;22.40;15.60
528;DHT22;250;47.712;7.508;2022-09-09T12:40:54;22.40;15.60
528;DHT22;250;47.712;7.508;2022-09-09T12:43:23;22.10;15.90
528;DHT22;250;47.712;7.508;2022-09-09T12:45:52;21.80;19.30
528;DHT22;250;47.712;7.508;2022-09-09T12:48:27;21.30;22.20
528;DHT22;250;47.712;7.508;2022-09-09T12:50:57;21.00;22.70
528;DHT22;250;47.712;7.508;2022-09-09T12:53:26;20.90;24.80
528;DHT22;250;47.712;7.508;2022-09-09T12:55:57;20.80;25.10
528;DHT22;250;47.712;7.508;2022-09-09T12:58:25;20.70;25.60
528;DHT22;250;47.712;7.508;2022-09-09T13:00:55;20.70;26.10
528;DHT22;250;47.712;7.508;2022-09-09T13:03:23;20.70;25.70
528;DHT22;250;47.712;7.508;2022-09-09T13:05:51;20.70;27.70
528;DHT22;250;47.712;7.508;2022-09-09T13:08:20;20.70;28.10
528;DHT22;250;47.712;7.508;2022-09-09T13:10:49;20.70;28.50
528;DHT22;250;47.712;7.508;2022-09-09T13:13:22;20.70;29.20
528;DHT22;250;47.712;7.508;2022-09-09T13:15:51;20.80;27.70
528;DHT22;250;47.712;7.508;2022-09-09T13:18:22;21.00;27.90
528;DHT22;250;47.712;7.508;2022-09-09T13:20:50;21.10;27.70
528;DHT22;250;47.712;7.508;2022-09-09T13:23:20;21.30;30.00
528;DHT22;250;47.712;7.508;2022-09-09T13:25:57;21.40;24.20
528;DHT22;250;47.712;7.508;2022-09-09T13:28:27;21.50;24.90
528;DHT22;250;47.712;7.508;2022-09-09T13:30:57;21.60;25.20
528;DHT22;250;47.712;7.508;2022-09-09T13:33:30;21.70;23.80
528;DHT22;250;47.712;7.508;2022-09-09T13:35:58;21.80;22.40
528;DHT22;250;47.712;7.508;2022-09-09T13:38:28;21.90;23.00
528;DHT22;250;47.712;7.508;2022-09-09T13:40:57;21.90;22.50
528;DHT22;250;47.712;7.508;2022-09-09T13:43:27;22.00;21.20
528;DHT22;250;47.712;7.508;2022-09-09T13:45:56;22.10;21.20
528;DHT22;250;47.712;7.508;2022-09-09T13:48:24;22.00;20.20
528;DHT22;250;47.712;7.508;2022-09-09T13:50:57;22.00;19.70
528;DHT22;250;47.712;7.508;2022-09-09T13:53:24;22.10;18.50
528;DHT22;250;47.712;7.508;2022-09-09T13:55:52;22.00;17.20
528;DHT22;250;47.712;7.508;2022-09-09T13:58:20;22.00;18.40
528;DHT22;250;47.712;7.508;2022-09-09T14:00:48;22.00;18.20
528;DHT22;250;47.712;7.508;2022-09-09T14:03:15;21.90;16.90
528;DHT22;250;47.712;7.508;2022-09-09T14:05:44;22.00;17.60
528;DHT22;250;47.712;7.508;2022-09-09T14:08:20;22.00;16.60
528;DHT22;250;47.712;7.508;2022-09-09T14:10:48;22.00;16.50
528;DHT22;250;47.712;7.508;2022-09-09T14:13:16;22.00;16.60
528;DHT22;250;47.712;7.508;2022-09-09T14:15:43;22.10;17.30
528;DHT22;250;47.712;7.508;2022-09-09T14:18:13;22.10;17.90
528;DHT22;250;47.712;7.508;2022-09-09T14:20:40;22.20;17.70
528;DHT22;250;47.712;7.508;2022-09-09T14:23:10;22.30;17.00
528;DHT22;250;47.712;7.508;2022-09-09T14:25:40;22.30;16.40
528;DHT22;250;47.712;7.508;2022-09-09T14:28:09;22.40;16.30
528;DHT22;250;47.712;7.508;2022-09-09T14:30:39;22.50;16.80
528;DHT22;250;47.712;7.508;2022-09-09T14:33:11;22.50;16.40
528;DHT22;250;47.712;7.508;2022-09-09T14:35:38;22.50;15.70
528;DHT22;250;47.712;7.508;2022-09-09T14:38:07;22.60;14.80
528;DHT22;250;47.712;7.508;2022-09-09T14:40:35;22.70;14.70
528;DHT22;250;47.712;7.508;2022-09-09T14:43:02;22.80;14.30
528;DHT22;250;47.712;7.508;2022-09-09T14:45:29;22.80;14.50
528;DHT22;250;47.712;7.508;2022-09-09T14:47:58;22.80;14.30
528;DHT22;250;47.712;7.508;2022-09-09T14:50:25;22.80;14.80
528;DHT22;250;47.712;7.508;2022-09-09T14:52:52;22.70;14.70
528;DHT22;250;47.712;7.508;2022-09-09T14:55:19;22.70;14.70
528;DHT22;250;47.712;7.508;2022-09-09T14:57:47;22.70;14.70
528;DHT22;250;47.712;7.508;2022-09-09T15:00:14;22.80;14.20
528;DHT22;250;47.712;7.508;2022-09-09T15:02:41;22.90;14.00
528;DHT22;250;47.712;7.508;2022-09-09T15:05:10;22.90;14.80
528;DHT22;250;47.712;7.508;2022-09-09T15:07:37;22.90;14.50
528;DHT22;250;47.712;7.508;2022-09-09T15:10:05;22.90;14.90
528;DHT22;250;47.712;7.508;2022-09-09T15:12:32;22.90;15.10
528;DHT22;250;47.712;7.508;2022-09-09T15:15:01;22.80;15.20
528;DHT22;250;47.712;7.508;2022-09-09T15:17:29;22.80;15.20
528;DHT22;250;47.712;7.508;2022-09-09T15:19:56;22.80;15.70
528;DHT22;250;47.712;7.508;2022-09-09T15:22:24;22.80;15.50
528;DHT22;250;47.712;7.508;2022-09-09T15:24:51;22.80;16.20
528;DHT22;250;47.712;7.508;2022-09-09T15:27:18;22.80;15.20
528;DHT22;250;47.712;7.508;2022-09-09T15:29:45;22.80;15.30
528;DHT22;250;47.712;7.508;2022-09-09T15:32:12;22.80;15.90
528;DHT22;250;47.712;7.508;2022-09-09T15:34:39;22.80;15.40
528;DHT22;250;47.712;7.508;2022-09-09T15:37:06;22.80;15.70
528;DHT22;250;47.712;7.508;2022-09-09T15:39:37;22.60;21.30
528;DHT22;250;47.712;7.508;2022-09-09T15:42:04;22.40;22.10
528;DHT22;250;47.712;7.508;2022-09-09T15:44:38;22.10;19.60
528;DHT22;250;47.712;7.508;2022-09-09T15:47:05;21.90;20.80
528;DHT22;250;47.712;7.508;2022-09-09T15:49:32;21.80;21.90
528;DHT22;250;47.712;7.508;2022-09-09T15:51:59;21.70;22.90
528;DHT22;250;47.712;7.508;2022-09-09T15:54:31;21.70;20.70
528;DHT22;250;47.712;7.508;2022-09-09T15:57:02;21.60;19.70
528;DHT22;250;47.712;7.508;2022-09-09T15:59:30;21.50;19.90
528;DHT22;250;47.712;7.508;2022-09-09T16:01:59;21.50;18.80
528;DHT22;250;47.712;7.508;2022-09-09T16:04:27;21.50;18.70
528;DHT22;250;47.712;7.508;2022-09-09T16:06:56;21.40;19.10
528;DHT22;250;47.712;7.508;2022-09-09T16:09:25;21.40;18.00
528;DHT22;250;47.712;7.508;2022-09-09T16:11:55;21.30;17.90
528;DHT22;250;47.712;7.508;2022-09-09T16:14:23;21.30;18.00
528;DHT22;250;47.712;7.508;2022-09-09T16:16:51;21.30;19.30
528;DHT22;250;47.712;7.508;2022-09-09T16:19:18;21.30;18.80
528;DHT22;250;47.712;7.508;2022-09-09T16:21:46;21.20;19.50
528;DHT22;250;47.712;7.508;2022-09-09T16:24:15;21.20;17.90
528;DHT22;250;47.712;7.508;2022-09-09T16:26:45;21.20;17.80
528;DHT22;250;47.712;7.508;2022-09-09T16:29:14;21.10;17.80
528;DHT22;250;47.712;7.508;2022-09-09T16:31:43;21.00;18.50
528;DHT22;250;47.712;7.508;2022-09-09T16:34:10;21.00;19.80
528;DHT22;250;47.712;7.508;2022-09-09T16:36:39;20.80;21.70
528;DHT22;250;47.712;7.508;2022-09-09T16:39:08;20.70;23.50
528;DHT22;250;47.712;7.508;2022-09-09T16:41:36;20.60;23.80
528;DHT22;250;47.712;7.508;2022-09-09T16:44:05;20.50;24.20
528;DHT22;250;47.712;7.508;2022-09-09T16:46:34;20.50;24.90
528;DHT22;250;47.712;7.508;2022-09-09T16:49:05;20.50;24.60
528;DHT22;250;47.712;7.508;2022-09-09T16:51:34;20.50;25.50
528;DHT22;250;47.712;7.508;2022-09-09T16:54:03;20.50;25.50
528;DHT22;250;47.712;7.508;2022-09-09T16:56:32;20.50;26.80
528;DHT22;250;47.712;7.508;2022-09-09T16:59:04;20.50;26.00
528;DHT22;250;47.712;7.508;2022-09-09T17:01:32;20.60;25.60
528;DHT22;250;47.712;7.508;2022-09-09T17:04:05;20.50;26.60